createdAt,value
2019-04-03T00:00:50.629Z,1002.62
2019-04-03T00:01:50.641Z,1002.59
2019-04-03T00:02:50.651Z,1002.60
2019-04-03T00:03:50.636Z,1002.56
2019-04-03T00:04:50.608Z,1002.57
2019-04-03T00:05:50.661Z,1002.58
2019-04-03T00:06:50.666Z,1002.59
2019-04-03T00:07:50.623Z,1002.58
2019-04-03T00:08:50.646Z,1002.54
2019-04-03T00:09:50.641Z,1002.50
2019-04-03T00:10:50.659Z,1002.52
2019-04-03T00:11:50.712Z,1002.49
2019-04-03T00:12:50.663Z,1002.50
2019-04-03T00:13:50.664Z,1002.49
2019-04-03T00:14:50.722Z,1002.48
2019-04-03T00:15:50.722Z,1002.47
2019-04-03T00:16:50.790Z,1002.52
2019-04-03T00:17:50.685Z,1002.51
2019-04-03T00:18:50.702Z,1002.51
2019-04-03T00:19:50.838Z,1002.53
2019-04-03T00:20:50.716Z,1002.52
2019-04-03T00:21:51.165Z,1002.49
2019-04-03T00:22:51.935Z,1002.55
2019-04-03T00:23:52.170Z,1002.55
2019-04-03T00:24:52.612Z,1002.58
2019-04-03T00:25:52.444Z,1002.61
2019-04-03T00:26:52.809Z,1002.61
2019-04-03T00:27:52.403Z,1002.56
2019-04-03T00:28:52.231Z,1002.55
2019-04-03T00:29:52.181Z,1002.60
2019-04-03T00:30:52.446Z,1002.59
2019-04-03T00:31:52.995Z,1002.57
2019-04-03T00:32:53.271Z,1002.58
2019-04-03T00:33:52.934Z,1002.60
2019-04-03T00:34:51.749Z,1002.60
2019-04-03T00:35:51.698Z,1002.60
2019-04-03T00:36:53.017Z,1002.64
2019-04-03T00:37:52.984Z,1002.61
2019-04-03T00:38:50.807Z,1002.62
2019-04-03T00:39:50.931Z,1002.63
2019-04-03T00:40:50.832Z,1002.64
2019-04-03T00:41:50.822Z,1002.60
2019-04-03T00:42:50.861Z,1002.61
2019-04-03T00:43:50.857Z,1002.65
2019-04-03T00:44:50.896Z,1002.65
2019-04-03T00:45:50.858Z,1002.68
2019-04-03T00:46:50.854Z,1002.69
2019-04-03T00:47:51.018Z,1002.70
2019-04-03T00:48:50.869Z,1002.72
2019-04-03T00:49:50.873Z,1002.70
2019-04-03T00:50:50.904Z,1002.66
2019-04-03T00:51:50.913Z,1002.61
2019-04-03T00:52:50.886Z,1002.66
2019-04-03T00:53:50.897Z,1002.72
2019-04-03T00:54:50.912Z,1002.68
2019-04-03T00:55:50.948Z,1002.68
2019-04-03T00:56:50.977Z,1002.66
2019-04-03T00:57:50.913Z,1002.70
2019-04-03T00:58:51.009Z,1002.64
2019-04-03T00:59:50.931Z,1002.61
2019-04-03T01:00:50.953Z,1002.63
2019-04-03T01:01:51.036Z,1002.65
2019-04-03T01:02:50.969Z,1002.68
2019-04-03T01:03:50.973Z,1002.66
2019-04-03T01:04:50.976Z,1002.64
2019-04-03T01:05:50.985Z,1002.56
2019-04-03T01:06:50.989Z,1002.61
2019-04-03T01:07:50.983Z,1002.61
2019-04-03T01:08:51.004Z,1002.61
2019-04-03T01:09:51.047Z,1002.61
2019-04-03T01:10:50.993Z,1002.59
2019-04-03T01:11:51.019Z,1002.57
2019-04-03T01:12:51.010Z,1002.61
2019-04-03T01:13:51.036Z,1002.57
2019-04-03T01:14:51.047Z,1002.56
2019-04-03T01:15:51.022Z,1002.54
2019-04-03T01:16:51.075Z,1002.53
2019-04-03T01:17:51.068Z,1002.52
2019-04-03T01:18:51.062Z,1002.52
2019-04-03T01:19:51.079Z,1002.47
2019-04-03T01:20:51.058Z,1002.52
2019-04-03T01:21:51.060Z,1002.47
2019-04-03T01:22:51.070Z,1002.46
2019-04-03T01:23:51.141Z,1002.49
2019-04-03T01:24:51.085Z,1002.48
2019-04-03T01:25:51.086Z,1002.45
2019-04-03T01:26:51.134Z,1002.44
2019-04-03T01:27:51.086Z,1002.42
2019-04-03T01:28:51.098Z,1002.42
2019-04-03T01:29:51.168Z,1002.38
2019-04-03T01:30:51.131Z,1002.37
2019-04-03T01:31:51.125Z,1002.34
2019-04-03T01:32:51.131Z,1002.33
2019-04-03T01:33:51.120Z,1002.34
2019-04-03T01:34:51.166Z,1002.35
2019-04-03T01:35:51.154Z,1002.30
2019-04-03T01:36:51.289Z,1002.33
2019-04-03T01:37:51.178Z,1002.35
2019-04-03T01:38:51.185Z,1002.31
2019-04-03T01:39:51.287Z,1002.33
2019-04-03T01:40:51.227Z,1002.25
2019-04-03T01:41:51.956Z,1002.27
2019-04-03T01:42:52.835Z,1002.28
2019-04-03T01:43:53.394Z,1002.28
2019-04-03T01:44:51.180Z,1002.28
2019-04-03T01:45:51.433Z,1002.29
2019-04-03T01:46:51.206Z,1002.26
2019-04-03T01:47:51.217Z,1002.23
2019-04-03T01:48:51.356Z,1002.18
2019-04-03T01:49:51.237Z,1002.16
2019-04-03T01:50:51.260Z,1002.14
2019-04-03T01:51:51.230Z,1002.18
2019-04-03T01:52:51.226Z,1002.15
2019-04-03T01:53:51.241Z,1002.16
2019-04-03T01:54:51.289Z,1002.15
2019-04-03T01:55:51.261Z,1002.13
2019-04-03T01:56:51.286Z,1002.10
2019-04-03T01:57:51.266Z,1002.10
2019-04-03T01:58:51.272Z,1002.05
2019-04-03T01:59:51.279Z,1002.05
2019-04-03T02:00:51.350Z,1002.00
2019-04-03T02:01:51.318Z,1002.03
2019-04-03T02:02:51.304Z,1002.08
2019-04-03T02:03:51.469Z,1002.05
2019-04-03T02:04:51.307Z,1002.03
2019-04-03T02:05:51.405Z,1002.07
2019-04-03T02:06:51.388Z,1002.05
2019-04-03T02:07:51.338Z,1001.97
2019-04-03T02:08:51.376Z,1001.94
2019-04-03T02:09:51.337Z,1001.91
2019-04-03T02:10:51.336Z,1001.89
2019-04-03T02:11:51.399Z,1001.91
2019-04-03T02:12:51.674Z,1001.85
2019-04-03T02:13:51.871Z,1001.87
2019-04-03T02:14:51.867Z,1001.81
2019-04-03T02:15:52.566Z,1001.80
2019-04-03T02:16:53.009Z,1001.80
2019-04-03T02:17:54.228Z,1001.74
2019-04-03T02:18:51.396Z,1001.78
2019-04-03T02:19:51.574Z,1001.79
2019-04-03T02:20:51.408Z,1001.80
2019-04-03T02:21:51.407Z,1001.82
2019-04-03T02:22:51.440Z,1001.83
2019-04-03T02:23:51.526Z,1001.82
2019-04-03T02:24:51.434Z,1001.81
2019-04-03T02:25:51.448Z,1001.79
2019-04-03T02:26:51.544Z,1001.80
2019-04-03T02:27:51.455Z,1001.85
2019-04-03T02:28:51.460Z,1001.82
2019-04-03T02:29:51.442Z,1001.80
2019-04-03T02:30:51.437Z,1001.80
2019-04-03T02:31:52.692Z,1001.81
2019-04-03T02:32:55.203Z,1001.78
2019-04-03T02:33:51.626Z,1001.75
2019-04-03T02:34:51.700Z,1001.71
2019-04-03T02:35:51.510Z,1001.67
2019-04-03T02:36:51.480Z,1001.63
2019-04-03T02:37:51.499Z,1001.66
2019-04-03T02:38:53.607Z,1001.71
2019-04-03T02:39:51.494Z,1001.78
2019-04-03T02:40:51.623Z,1001.74
2019-04-03T02:41:51.522Z,1001.75
2019-04-03T02:42:51.509Z,1001.76
2019-04-03T02:43:51.834Z,1001.74
2019-04-03T02:44:51.934Z,1001.78
2019-04-03T02:45:51.810Z,1001.80
2019-04-03T02:46:51.532Z,1001.81
2019-04-03T02:47:51.561Z,1001.81
2019-04-03T02:48:51.550Z,1001.83
2019-04-03T02:49:51.552Z,1001.82
2019-04-03T02:50:51.668Z,1001.84
2019-04-03T02:51:52.955Z,1001.84
2019-04-03T02:52:51.620Z,1001.84
2019-04-03T02:53:51.592Z,1001.83
2019-04-03T02:54:51.600Z,1001.84
2019-04-03T02:55:51.601Z,1001.81
2019-04-03T02:56:51.589Z,1001.86
2019-04-03T02:57:52.020Z,1001.85
2019-04-03T02:58:53.998Z,1001.85
2019-04-03T02:59:51.637Z,1001.86
2019-04-03T03:00:51.645Z,1001.83
2019-04-03T03:01:51.667Z,1001.83
2019-04-03T03:02:51.732Z,1001.82
2019-04-03T03:03:51.890Z,1001.87
2019-04-03T03:04:54.587Z,1001.84
2019-04-03T03:05:51.679Z,1001.83
2019-04-03T03:06:51.643Z,1001.83
2019-04-03T03:07:51.651Z,1001.78
2019-04-03T03:08:51.653Z,1001.78
2019-04-03T03:09:51.656Z,1001.75
2019-04-03T03:10:52.873Z,1001.77
2019-04-03T03:11:55.218Z,1001.80
2019-04-03T03:12:52.005Z,1001.76
2019-04-03T03:13:51.723Z,1001.79
2019-04-03T03:14:51.687Z,1001.77
2019-04-03T03:15:51.915Z,1001.76
2019-04-03T03:16:51.759Z,1001.73
2019-04-03T03:17:54.421Z,1001.75
2019-04-03T03:18:51.722Z,1001.73
2019-04-03T03:19:51.736Z,1001.74
2019-04-03T03:20:52.552Z,1001.75
2019-04-03T03:21:51.748Z,1001.75
2019-04-03T03:22:51.851Z,1001.78
2019-04-03T03:23:55.131Z,1001.80
2019-04-03T03:24:51.841Z,1001.81
2019-04-03T03:25:51.771Z,1001.79
2019-04-03T03:26:51.768Z,1001.78
2019-04-03T03:27:52.024Z,1001.79
2019-04-03T03:28:52.041Z,1001.77
2019-04-03T03:29:51.798Z,1001.80
2019-04-03T03:31:00.904Z,1001.79
2019-04-03T03:32:10.782Z,1001.77
2019-04-03T03:32:54.897Z,1001.79
2019-04-03T03:33:51.903Z,1001.79
2019-04-03T03:35:05.103Z,1001.74
2019-04-03T03:35:52.314Z,1001.75
2019-04-03T03:36:58.628Z,1001.69
2019-04-03T03:37:51.828Z,1001.70
2019-04-03T03:38:51.976Z,1001.71
2019-04-03T03:39:51.817Z,1001.66
2019-04-03T03:40:51.819Z,1001.70
2019-04-03T03:41:56.090Z,1001.67
2019-04-03T03:42:51.832Z,1001.66
2019-04-03T03:43:51.846Z,1001.66
2019-04-03T03:44:52.178Z,1001.65
2019-04-03T03:45:53.558Z,1001.66
2019-04-03T03:46:51.887Z,1001.65
2019-04-03T03:47:52.085Z,1001.62
2019-04-03T03:48:51.887Z,1001.64
2019-04-03T03:49:51.873Z,1001.65
2019-04-03T03:50:55.687Z,1001.64
2019-04-03T03:51:51.892Z,1001.67
2019-04-03T03:52:51.898Z,1001.69
2019-04-03T03:53:52.097Z,1001.72
2019-04-03T03:54:52.475Z,1001.65
2019-04-03T03:55:52.116Z,1001.66
2019-04-03T03:56:51.928Z,1001.68
2019-04-03T03:57:51.910Z,1001.65
2019-04-03T03:58:52.004Z,1001.65
2019-04-03T03:59:52.660Z,1001.65
2019-04-03T04:00:53.116Z,1001.68
2019-04-03T04:01:51.935Z,1001.65
2019-04-03T04:02:51.973Z,1001.63
2019-04-03T04:03:52.058Z,1001.64
2019-04-03T04:04:51.958Z,1001.60
2019-04-03T04:05:55.620Z,1001.62
2019-04-03T04:06:51.950Z,1001.63
2019-04-03T04:07:52.082Z,1001.61
2019-04-03T04:08:51.963Z,1001.65
2019-04-03T04:09:52.531Z,1001.59
2019-04-03T04:10:52.293Z,1001.59
2019-04-03T04:11:51.994Z,1001.60
2019-04-03T04:12:52.062Z,1001.59
2019-04-03T04:13:52.250Z,1001.59
2019-04-03T04:14:54.392Z,1001.61
2019-04-03T04:15:52.024Z,1001.62
2019-04-03T04:16:52.220Z,1001.69
2019-04-03T04:17:52.261Z,1001.64
2019-04-03T04:18:55.661Z,1001.68
2019-04-03T04:19:52.026Z,1001.71
2019-04-03T04:20:52.651Z,1001.70
2019-04-03T04:21:52.083Z,1001.70
2019-04-03T04:22:52.044Z,1001.74
2019-04-03T04:23:53.171Z,1001.72
2019-04-03T04:24:52.054Z,1001.71
2019-04-03T04:25:52.341Z,1001.67
2019-04-03T04:26:52.047Z,1001.67
2019-04-03T04:27:52.090Z,1001.64
2019-04-03T04:28:52.290Z,1001.58
2019-04-03T04:29:52.247Z,1001.57
2019-04-03T04:30:52.113Z,1001.53
2019-04-03T04:31:52.116Z,1001.54
2019-04-03T04:32:52.123Z,1001.51
2019-04-03T04:33:52.093Z,1001.48
2019-04-03T04:34:52.123Z,1001.49
2019-04-03T04:35:52.893Z,1001.49
2019-04-03T04:36:53.058Z,1001.51
2019-04-03T04:37:52.118Z,1001.59
2019-04-03T04:38:52.122Z,1001.59
2019-04-03T04:39:52.124Z,1001.62
2019-04-03T04:40:52.178Z,1001.62
2019-04-03T04:41:52.176Z,1001.64
2019-04-03T04:42:52.303Z,1001.63
2019-04-03T04:43:52.143Z,1001.65
2019-04-03T04:44:52.158Z,1001.63
2019-04-03T04:45:52.214Z,1001.65
2019-04-03T04:46:52.252Z,1001.65
2019-04-03T04:47:52.297Z,1001.65
2019-04-03T04:48:52.452Z,1001.63
2019-04-03T04:49:53.693Z,1001.61
2019-04-03T04:50:54.234Z,1001.61
2019-04-03T04:51:52.200Z,1001.60
2019-04-03T04:52:52.469Z,1001.59
2019-04-03T04:53:52.265Z,1001.62
2019-04-03T04:54:52.211Z,1001.60
2019-04-03T04:55:52.212Z,1001.52
2019-04-03T04:56:52.241Z,1001.52
2019-04-03T04:57:52.245Z,1001.54
2019-04-03T04:58:52.226Z,1001.49
2019-04-03T04:59:52.248Z,1001.48
2019-04-03T05:00:53.695Z,1001.52
2019-04-03T05:01:52.303Z,1001.45
2019-04-03T05:02:52.289Z,1001.51
2019-04-03T05:03:53.904Z,1001.48
2019-04-03T05:04:52.281Z,1001.52
2019-04-03T05:05:52.290Z,1001.54
2019-04-03T05:06:52.311Z,1001.56
2019-04-03T05:07:52.458Z,1001.55
2019-04-03T05:08:52.464Z,1001.57
2019-04-03T05:09:52.494Z,1001.58
2019-04-03T05:10:52.311Z,1001.61
2019-04-03T05:11:52.428Z,1001.64
2019-04-03T05:12:52.354Z,1001.62
2019-04-03T05:13:52.362Z,1001.67
2019-04-03T05:14:52.319Z,1001.69
2019-04-03T05:15:53.920Z,1001.67
2019-04-03T05:16:52.319Z,1001.62
2019-04-03T05:17:52.330Z,1001.59
2019-04-03T05:18:52.646Z,1001.58
2019-04-03T05:19:52.351Z,1001.55
2019-04-03T05:20:52.514Z,1001.57
2019-04-03T05:21:53.113Z,1001.52
2019-04-03T05:22:54.544Z,1001.51
2019-04-03T05:23:52.406Z,1001.50
2019-04-03T05:24:52.364Z,1001.52
2019-04-03T05:25:52.389Z,1001.51
2019-04-03T05:26:52.384Z,1001.51
2019-04-03T05:27:52.407Z,1001.51
2019-04-03T05:28:57.042Z,1001.55
2019-04-03T05:29:52.487Z,1001.54
2019-04-03T05:30:52.589Z,1001.54
2019-04-03T05:31:52.388Z,1001.54
2019-04-03T05:32:52.412Z,1001.52
2019-04-03T05:33:52.421Z,1001.53
2019-04-03T05:34:52.604Z,1001.51
2019-04-03T05:35:52.448Z,1001.53
2019-04-03T05:36:52.470Z,1001.53
2019-04-03T05:37:52.483Z,1001.54
2019-04-03T05:38:53.762Z,1001.56
2019-04-03T05:39:55.202Z,1001.55
2019-04-03T05:40:52.668Z,1001.56
2019-04-03T05:41:52.493Z,1001.50
2019-04-03T05:42:52.458Z,1001.54
2019-04-03T05:43:52.822Z,1001.57
2019-04-03T05:44:52.991Z,1001.54
2019-04-03T05:45:54.098Z,1001.56
2019-04-03T05:46:52.672Z,1001.58
2019-04-03T05:47:52.685Z,1001.59
2019-04-03T05:48:54.447Z,1001.58
2019-04-03T05:49:55.611Z,1001.65
2019-04-03T05:50:52.525Z,1001.65
2019-04-03T05:51:52.778Z,1001.67
2019-04-03T05:52:52.733Z,1001.65
2019-04-03T05:53:54.097Z,1001.67
2019-04-03T05:54:53.023Z,1001.68
2019-04-03T05:55:52.984Z,1001.67
2019-04-03T05:56:52.873Z,1001.70
2019-04-03T05:57:53.135Z,1001.71
2019-04-03T05:58:56.259Z,1001.71
2019-04-03T06:00:00.115Z,1001.72
2019-04-03T06:01:03.571Z,1001.72
2019-04-03T06:01:52.894Z,1001.68
2019-04-03T06:02:54.702Z,1001.71
2019-04-03T06:03:53.248Z,1001.68
2019-04-03T06:04:52.996Z,1001.68
2019-04-03T06:05:52.747Z,1001.67
2019-04-03T06:06:52.748Z,1001.66
2019-04-03T06:07:52.747Z,1001.63
2019-04-03T06:08:52.985Z,1001.62
2019-04-03T06:09:54.187Z,1001.56
2019-04-03T06:10:52.958Z,1001.59
2019-04-03T06:11:52.871Z,1001.55
2019-04-03T06:12:52.668Z,1001.57
2019-04-03T06:13:52.801Z,1001.55
2019-04-03T06:14:52.626Z,1001.58
2019-04-03T06:15:53.539Z,1001.57
2019-04-03T06:16:55.486Z,1001.60
2019-04-03T06:17:54.294Z,1001.56
2019-04-03T06:18:52.669Z,1001.56
2019-04-03T06:19:52.671Z,1001.54
2019-04-03T06:20:52.905Z,1001.55
2019-04-03T06:21:52.667Z,1001.57
2019-04-03T06:22:52.681Z,1001.57
2019-04-03T06:23:53.382Z,1001.57
2019-04-03T06:24:55.831Z,1001.60
2019-04-03T06:25:52.705Z,1001.57
2019-04-03T06:26:52.737Z,1001.61
2019-04-03T06:27:52.721Z,1001.56
2019-04-03T06:28:52.887Z,1001.58
2019-04-03T06:29:55.308Z,1001.60
2019-04-03T06:30:55.608Z,1001.57
2019-04-03T06:31:52.938Z,1001.59
2019-04-03T06:32:54.497Z,1001.57
2019-04-03T06:33:52.792Z,1001.55
2019-04-03T06:34:52.769Z,1001.53
2019-04-03T06:35:52.762Z,1001.53
2019-04-03T06:36:52.799Z,1001.52
2019-04-03T06:37:53.506Z,1001.54
2019-04-03T06:38:54.242Z,1001.51
2019-04-03T06:39:52.776Z,1001.48
2019-04-03T06:40:52.935Z,1001.48
2019-04-03T06:41:52.808Z,1001.48
2019-04-03T06:42:52.996Z,1001.48
2019-04-03T06:43:54.274Z,1001.47
2019-04-03T06:44:53.933Z,1001.46
2019-04-03T06:45:52.815Z,1001.45
2019-04-03T06:46:54.797Z,1001.41
2019-04-03T06:47:52.865Z,1001.42
2019-04-03T06:48:55.096Z,1001.44
2019-04-03T06:49:53.085Z,1001.45
2019-04-03T06:50:52.853Z,1001.43
2019-04-03T06:51:52.868Z,1001.45
2019-04-03T06:52:53.613Z,1001.44
2019-04-03T06:53:52.888Z,1001.48
2019-04-03T06:54:52.945Z,1001.49
2019-04-03T06:55:52.896Z,1001.49
2019-04-03T06:56:53.120Z,1001.47
2019-04-03T06:57:53.175Z,1001.50
2019-04-03T06:58:52.913Z,1001.47
2019-04-03T06:59:53.224Z,1001.49
2019-04-03T07:00:54.919Z,1001.50
2019-04-03T07:01:53.610Z,1001.48
2019-04-03T07:02:53.111Z,1001.51
2019-04-03T07:03:52.940Z,1001.49
2019-04-03T07:04:52.961Z,1001.48
2019-04-03T07:05:53.201Z,1001.50
2019-04-03T07:06:55.373Z,1001.49
2019-04-03T07:07:53.038Z,1001.47
2019-04-03T07:08:52.999Z,1001.51
2019-04-03T07:09:52.996Z,1001.50
2019-04-03T07:10:55.761Z,1001.50
2019-04-03T07:11:53.015Z,1001.49
2019-04-03T07:12:53.005Z,1001.52
2019-04-03T07:13:53.658Z,1001.55
2019-04-03T07:14:53.026Z,1001.55
2019-04-03T07:15:53.039Z,1001.53
2019-04-03T07:16:53.427Z,1001.52
2019-04-03T07:17:53.031Z,1001.59
2019-04-03T07:18:53.047Z,1001.54
2019-04-03T07:19:53.123Z,1001.53
2019-04-03T07:20:53.063Z,1001.52
2019-04-03T07:21:55.434Z,1001.55
2019-04-03T07:22:53.088Z,1001.54
2019-04-03T07:23:53.074Z,1001.57
2019-04-03T07:24:53.105Z,1001.59
2019-04-03T07:25:53.254Z,1001.65
2019-04-03T07:26:53.094Z,1001.65
2019-04-03T07:27:53.134Z,1001.65
2019-04-03T07:28:53.128Z,1001.67
2019-04-03T07:29:53.126Z,1001.66
2019-04-03T07:30:53.959Z,1001.67
2019-04-03T07:31:55.155Z,1001.65
2019-04-03T07:32:53.416Z,1001.63
2019-04-03T07:33:53.163Z,1001.66
2019-04-03T07:34:53.370Z,1001.66
2019-04-03T07:35:53.172Z,1001.62
2019-04-03T07:36:53.172Z,1001.66
2019-04-03T07:37:53.201Z,1001.63
2019-04-03T07:38:53.367Z,1001.61
2019-04-03T07:39:53.229Z,1001.61
2019-04-03T07:40:53.213Z,1001.64
2019-04-03T07:41:54.042Z,1001.63
2019-04-03T07:42:55.380Z,1001.61
2019-04-03T07:43:53.292Z,1001.60
2019-04-03T07:44:53.265Z,1001.64
2019-04-03T07:45:53.276Z,1001.64
2019-04-03T07:46:54.939Z,1001.63
2019-04-03T07:47:53.472Z,1001.62
2019-04-03T07:48:53.277Z,1001.68
2019-04-03T07:49:53.281Z,1001.68
2019-04-03T07:50:53.317Z,1001.70
2019-04-03T07:51:53.277Z,1001.66
2019-04-03T07:52:53.321Z,1001.71
2019-04-03T07:53:53.341Z,1001.72
2019-04-03T07:54:56.461Z,1001.71
2019-04-03T07:55:54.967Z,1001.72
2019-04-03T07:56:56.258Z,1001.70
2019-04-03T07:57:53.448Z,1001.69
2019-04-03T07:58:53.661Z,1001.73
2019-04-03T07:59:53.380Z,1001.69
2019-04-03T08:00:53.398Z,1001.70
2019-04-03T08:01:53.358Z,1001.69
2019-04-03T08:02:53.522Z,1001.67
2019-04-03T08:03:53.487Z,1001.68
2019-04-03T08:04:54.193Z,1001.60
2019-04-03T08:05:55.890Z,1001.62
2019-04-03T08:06:53.500Z,1001.61
2019-04-03T08:07:53.459Z,1001.57
2019-04-03T08:09:06.601Z,1001.60
2019-04-03T08:09:53.451Z,1001.58
2019-04-03T08:10:53.480Z,1001.58
2019-04-03T08:11:53.629Z,1001.54
2019-04-03T08:12:53.597Z,1001.56
2019-04-03T08:13:53.486Z,1001.57
2019-04-03T08:14:53.468Z,1001.53
2019-04-03T08:15:53.514Z,1001.56
2019-04-03T08:16:56.152Z,1001.56
2019-04-03T08:17:53.791Z,1001.57
2019-04-03T08:18:53.769Z,1001.57
2019-04-03T08:19:54.385Z,1001.54
2019-04-03T08:20:55.011Z,1001.52
2019-04-03T08:21:53.546Z,1001.57
2019-04-03T08:22:53.824Z,1001.55
2019-04-03T08:23:53.565Z,1001.59
2019-04-03T08:24:53.868Z,1001.58
2019-04-03T08:25:54.713Z,1001.53
2019-04-03T08:26:53.641Z,1001.53
2019-04-03T08:27:55.357Z,1001.55
2019-04-03T08:28:53.645Z,1001.54
2019-04-03T08:29:53.797Z,1001.51
2019-04-03T08:30:53.848Z,1001.48
2019-04-03T08:31:53.708Z,1001.50
2019-04-03T08:32:53.788Z,1001.51
2019-04-03T08:33:53.715Z,1001.50
2019-04-03T08:34:53.641Z,1001.45
2019-04-03T08:35:53.650Z,1001.49
2019-04-03T08:36:53.689Z,1001.42
2019-04-03T08:37:53.692Z,1001.46
2019-04-03T08:38:53.708Z,1001.43
2019-04-03T08:39:53.716Z,1001.45
2019-04-03T08:40:53.772Z,1001.46
2019-04-03T08:41:56.076Z,1001.45
2019-04-03T08:42:53.736Z,1001.44
2019-04-03T08:43:53.865Z,1001.44
2019-04-03T08:44:53.762Z,1001.45
2019-04-03T08:45:53.937Z,1001.45
2019-04-03T08:46:54.191Z,1001.37
2019-04-03T08:47:53.832Z,1001.39
2019-04-03T08:48:55.132Z,1001.42
2019-04-03T08:49:56.433Z,1001.36
2019-04-03T08:50:53.843Z,1001.39
2019-04-03T08:51:53.803Z,1001.35
2019-04-03T08:52:53.813Z,1001.32
2019-04-03T08:53:54.858Z,1001.33
2019-04-03T08:54:53.819Z,1001.29
2019-04-03T08:55:56.403Z,1001.26
2019-04-03T08:56:53.831Z,1001.25
2019-04-03T08:57:54.218Z,1001.23
2019-04-03T08:58:56.517Z,1001.15
2019-04-03T08:59:53.907Z,1001.17
2019-04-03T09:00:53.876Z,1001.18
2019-04-03T09:01:55.296Z,1001.18
2019-04-03T09:02:53.901Z,1001.19
2019-04-03T09:03:53.945Z,1001.17
2019-04-03T09:04:54.371Z,1001.18
2019-04-03T09:05:55.629Z,1001.14
2019-04-03T09:06:54.648Z,1001.15
2019-04-03T09:07:56.089Z,1001.13
2019-04-03T09:08:53.963Z,1001.10
2019-04-03T09:09:54.148Z,1001.10
2019-04-03T09:10:54.083Z,1001.09
2019-04-03T09:11:53.976Z,1001.10
2019-04-03T09:12:53.986Z,1001.05
2019-04-03T09:13:54.807Z,1001.02
2019-04-03T09:14:56.384Z,1001.07
2019-04-03T09:15:54.010Z,1001.06
2019-04-03T09:16:54.025Z,1001.08
2019-04-03T09:17:54.012Z,1001.12
2019-04-03T09:18:54.031Z,1001.10
2019-04-03T09:19:56.309Z,1001.14
2019-04-03T09:20:54.064Z,1001.09
2019-04-03T09:21:54.203Z,1001.11
2019-04-03T09:22:54.525Z,1001.10
2019-04-03T09:23:56.797Z,1001.06
2019-04-03T09:24:54.296Z,1001.07
2019-04-03T09:25:54.095Z,1001.07
2019-04-03T09:26:54.241Z,1001.06
2019-04-03T09:27:54.100Z,1001.07
2019-04-03T09:28:54.104Z,1001.04
2019-04-03T09:29:54.134Z,1001.05
2019-04-03T09:30:54.229Z,1001.02
2019-04-03T09:31:55.945Z,1001.02
2019-04-03T09:32:54.463Z,1000.99
2019-04-03T09:33:56.264Z,1000.95
2019-04-03T09:34:54.190Z,1000.92
2019-04-03T09:35:54.300Z,1000.92
2019-04-03T09:36:54.204Z,1000.90
2019-04-03T09:37:54.331Z,1000.86
2019-04-03T09:38:54.211Z,1000.80
2019-04-03T09:39:54.241Z,1000.83
2019-04-03T09:40:54.247Z,1000.83
2019-04-03T09:41:54.198Z,1000.81
2019-04-03T09:42:54.227Z,1000.80
2019-04-03T09:43:54.695Z,1000.80
2019-04-03T09:44:56.186Z,1000.78
2019-04-03T09:45:54.257Z,1000.72
2019-04-03T09:46:54.275Z,1000.77
2019-04-03T09:47:54.445Z,1000.71
2019-04-03T09:48:54.278Z,1000.68
2019-04-03T09:49:54.309Z,1000.65
2019-04-03T09:50:54.405Z,1000.64
2019-04-03T09:51:54.554Z,1000.56
2019-04-03T09:52:55.331Z,1000.59
2019-04-03T09:53:57.103Z,1000.60
2019-04-03T09:54:54.319Z,1000.58
2019-04-03T09:55:54.402Z,1000.56
2019-04-03T09:57:01.692Z,1000.52
2019-04-03T09:57:54.389Z,1000.57
2019-04-03T09:58:56.184Z,1000.50
2019-04-03T09:59:54.435Z,1000.56
2019-04-03T10:00:54.409Z,1000.54
2019-04-03T10:01:54.388Z,1000.51
2019-04-03T10:02:54.462Z,1000.54
2019-04-03T10:03:55.688Z,1000.56
2019-04-03T10:04:57.325Z,1000.52
2019-04-03T10:05:54.412Z,1000.53
2019-04-03T10:06:54.454Z,1000.54
2019-04-03T10:07:54.445Z,1000.55
2019-04-03T10:08:54.657Z,1000.54
2019-04-03T10:09:54.868Z,1000.49
2019-04-03T10:10:54.519Z,1000.49
2019-04-03T10:11:54.497Z,1000.44
2019-04-03T10:12:54.674Z,1000.42
2019-04-03T10:13:54.931Z,1000.38
2019-04-03T10:14:54.556Z,1000.41
2019-04-03T10:15:54.914Z,1000.41
2019-04-03T10:16:54.529Z,1000.33
2019-04-03T10:17:54.532Z,1000.34
2019-04-03T10:18:54.784Z,1000.32
2019-04-03T10:19:54.537Z,1000.32
2019-04-03T10:20:54.548Z,1000.36
2019-04-03T10:21:54.557Z,1000.37
2019-04-03T10:22:56.347Z,1000.34
2019-04-03T10:23:54.587Z,1000.32
2019-04-03T10:24:54.626Z,1000.28
2019-04-03T10:25:54.638Z,1000.31
2019-04-03T10:26:54.839Z,1000.28
2019-04-03T10:27:54.617Z,1000.28
2019-04-03T10:28:54.875Z,1000.27
2019-04-03T10:29:56.048Z,1000.21
2019-04-03T10:30:54.655Z,1000.22
2019-04-03T10:31:55.734Z,1000.20
2019-04-03T10:32:54.762Z,1000.19
2019-04-03T10:33:54.659Z,1000.22
2019-04-03T10:34:57.140Z,1000.19
2019-04-03T10:35:54.821Z,1000.16
2019-04-03T10:36:54.821Z,1000.17
2019-04-03T10:37:54.702Z,1000.18
2019-04-03T10:38:54.714Z,1000.13
2019-04-03T10:39:54.996Z,1000.11
2019-04-03T10:40:56.271Z,1000.15
2019-04-03T10:41:55.051Z,1000.13
2019-04-03T10:42:55.280Z,1000.13
2019-04-03T10:43:54.788Z,1000.10
2019-04-03T10:44:54.753Z,1000.06
2019-04-03T10:45:54.834Z,1000.07
2019-04-03T10:46:54.780Z,1000.08
2019-04-03T10:47:56.309Z,1000.06
2019-04-03T10:48:54.975Z,1000.07
2019-04-03T10:49:55.331Z,1000.04
2019-04-03T10:50:55.145Z,1000.01
2019-04-03T10:51:55.137Z,1000.03
2019-04-03T10:52:54.849Z,999.99
2019-04-03T10:53:54.856Z,999.98
2019-04-03T10:54:56.876Z,999.96
2019-04-03T10:55:54.905Z,999.93
2019-04-03T10:56:54.890Z,999.95
2019-04-03T10:57:55.214Z,999.95
2019-04-03T10:58:55.207Z,999.94
2019-04-03T10:59:55.247Z,999.94
2019-04-03T11:00:54.914Z,999.93
2019-04-03T11:01:55.156Z,999.87
2019-04-03T11:02:55.115Z,999.88
2019-04-03T11:03:55.201Z,999.87
2019-04-03T11:04:54.953Z,999.88
2019-04-03T11:05:54.991Z,999.85
2019-04-03T11:06:54.970Z,999.85
2019-04-03T11:07:55.000Z,999.86
2019-04-03T11:08:54.977Z,999.88
2019-04-03T11:09:55.267Z,999.84
2019-04-03T11:10:57.486Z,999.85
2019-04-03T11:11:55.032Z,999.79
2019-04-03T11:12:55.092Z,999.82
2019-04-03T11:13:55.495Z,999.84
2019-04-03T11:14:55.048Z,999.84
2019-04-03T11:15:55.062Z,999.84
2019-04-03T11:16:55.070Z,999.85
2019-04-03T11:17:55.121Z,999.84
2019-04-03T11:18:59.979Z,999.80
2019-04-03T11:19:55.328Z,999.83
2019-04-03T11:20:55.099Z,999.82
2019-04-03T11:21:56.790Z,999.79
2019-04-03T11:23:05.329Z,999.74
2019-04-03T11:23:55.163Z,999.65
2019-04-03T11:24:55.198Z,999.65
2019-04-03T11:25:55.216Z,999.64
2019-04-03T11:26:55.163Z,999.60
2019-04-03T11:27:55.224Z,999.59
2019-04-03T11:28:55.272Z,999.55
2019-04-03T11:29:55.256Z,999.55
2019-04-03T11:30:56.311Z,999.54
2019-04-03T11:31:55.230Z,999.54
2019-04-03T11:32:55.259Z,999.49
2019-04-03T11:33:55.284Z,999.47
2019-04-03T11:34:55.314Z,999.41
2019-04-03T11:35:55.333Z,999.42
2019-04-03T11:36:55.263Z,999.37
2019-04-03T11:37:55.292Z,999.37
2019-04-03T11:39:10.739Z,999.38
2019-04-03T11:40:02.816Z,999.33
2019-04-03T11:40:55.347Z,999.30
2019-04-03T11:41:56.241Z,999.29
2019-04-03T11:42:55.496Z,999.29
2019-04-03T11:43:55.352Z,999.33
2019-04-03T11:44:55.372Z,999.33
2019-04-03T11:45:55.355Z,999.36
2019-04-03T11:46:55.856Z,999.33
2019-04-03T11:47:55.637Z,999.30
2019-04-03T11:48:55.417Z,999.33
2019-04-03T11:49:55.593Z,999.33
2019-04-03T11:50:57.019Z,999.27
2019-04-03T11:51:55.418Z,999.24
2019-04-03T11:52:55.508Z,999.21
2019-04-03T11:53:55.455Z,999.19
2019-04-03T11:54:55.458Z,999.19
2019-04-03T11:55:55.521Z,999.22
2019-04-03T11:56:56.922Z,999.19
2019-04-03T11:57:55.528Z,999.24
2019-04-03T11:58:55.506Z,999.17
2019-04-03T11:59:56.918Z,999.20
2019-04-03T12:00:55.557Z,999.16
2019-04-03T12:01:55.529Z,999.15
2019-04-03T12:02:55.648Z,999.18
2019-04-03T12:03:55.576Z,999.14
2019-04-03T12:04:55.562Z,999.11
2019-04-03T12:05:55.881Z,999.07
2019-04-03T12:06:55.600Z,999.13
2019-04-03T12:07:56.827Z,999.07
2019-04-03T12:08:55.664Z,998.97